Time;durP1;ratioP1;P1;durP2;ratioP2;P2;SDS_P1;SDS_P2;PMS_P1;PMS_P2;Temp;Humidity;BMP_temperature;BMP_pressure;BME280_temperature;BME280_humidity;BME280_pressure;Samples;Min_cycle;Max_cycle;Signal;HPM_P1;HPM_P2
2022/11/14 00:01:56;;;;;;;9.47;8.37;;;9.10;99.90;;;;;;5092523;28;20823;-78
2022/11/14 00:04:46;;;;;;;9.00;8.10;;;9.10;99.90;;;;;;5093162;28;20184;-78
2022/11/14 00:07:32;;;;;;;11.37;8.97;;;9.10;99.90;;;;;;5094316;28;20657;-78
2022/11/14 00:10:23;;;;;;;9.47;8.50;;;9.00;99.90;;;;;;5080805;28;20213;-78
2022/11/14 00:13:09;;;;;;;9.90;8.60;;;9.00;99.90;;;;;;5081453;28;20221;-78
2022/11/14 00:15:55;;;;;;;9.60;8.60;;;9.10;99.90;;;;;;5093077;28;20197;-78
2022/11/14 00:18:41;;;;;;;9.87;8.87;;;9.00;99.90;;;;;;5094798;28;20197;-78
2022/11/14 00:21:28;;;;;;;11.63;9.40;;;8.70;99.90;;;;;;5093521;28;20528;-78
2022/11/14 00:24:14;;;;;;;10.43;9.33;;;8.70;99.90;;;;;;5094110;28;20196;-78
2022/11/14 00:27:00;;;;;;;10.27;9.17;;;8.50;99.90;;;;;;5087490;28;20682;-78
2022/11/14 00:29:46;;;;;;;9.87;8.87;;;8.50;99.90;;;;;;5091219;28;20197;-78
2022/11/14 00:32:32;;;;;;;13.60;9.80;;;8.60;99.90;;;;;;5087752;28;20560;-78
2022/11/14 00:35:18;;;;;;;11.07;9.87;;;8.50;99.90;;;;;;5091936;28;20209;-78
2022/11/14 00:38:06;;;;;;;10.90;9.80;;;8.70;99.90;;;;;;5092957;28;20209;-78
2022/11/14 00:41:28;;;;;;;10.10;9.03;;;8.80;99.90;;;;;;5089385;28;20657;-78
2022/11/14 00:44:13;;;;;;;10.77;9.67;;;8.50;99.90;;;;;;5095452;28;20192;-78
2022/11/14 00:46:59;;;;;;;10.40;9.40;;;8.40;99.90;;;;;;5090063;28;20209;-78
2022/11/14 00:49:45;;;;;;;10.90;9.43;;;8.20;99.90;;;;;;5096663;28;20196;-78
2022/11/14 00:52:31;;;;;;;11.20;10.07;;;8.10;99.90;;;;;;5089221;28;20216;-78
2022/11/14 00:55:19;;;;;;;12.20;9.50;;;8.00;99.90;;;;;;5093130;28;20200;-78
2022/11/14 00:58:05;;;;;;;10.97;9.87;;;7.90;99.90;;;;;;5101349;28;20204;-78
2022/11/14 01:00:52;;;;;;;10.70;9.47;;;7.90;99.90;;;;;;5095872;28;20670;-77
2022/11/14 01:03:37;;;;;;;10.50;9.50;;;7.90;99.90;;;;;;5090554;28;20293;-78
2022/11/14 01:06:23;;;;;;;11.17;9.07;;;7.90;99.90;;;;;;5090708;28;20192;-78
2022/11/14 01:09:09;;;;;;;10.53;9.43;;;7.80;99.90;;;;;;5093838;28;20268;-78
2022/11/14 01:12:00;;;;;;;10.80;9.70;;;7.80;99.90;;;;;;5087360;28;20197;-78
2022/11/14 01:14:45;;;;;;;10.30;9.20;;;7.70;99.90;;;;;;5089541;28;20197;-78
2022/11/14 01:17:33;;;;;;;11.27;9.87;;;7.90;99.90;;;;;;5096790;28;20259;-78
2022/11/14 01:20:19;;;;;;;10.80;9.23;;;7.90;99.90;;;;;;5095765;28;20558;-78
2022/11/14 01:23:05;;;;;;;11.33;10.13;;;7.80;99.90;;;;;;5086775;28;20309;-78
2022/11/14 01:25:52;;;;;;;11.83;9.50;;;7.80;99.90;;;;;;5092174;28;20685;-78
2022/11/14 01:28:42;;;;;;;10.43;8.67;;;7.70;99.90;;;;;;5094691;28;20196;-78
2022/11/14 01:31:28;;;;;;;10.97;9.30;;;7.80;99.90;;;;;;5093272;28;20651;-78
2022/11/14 01:34:14;;;;;;;10.20;9.20;;;7.80;99.90;;;;;;5094115;28;20216;-78
2022/11/14 01:37:00;;;;;;;9.80;8.90;;;7.70;99.90;;;;;;5101357;28;20206;-78
2022/11/14 01:39:46;;;;;;;10.80;9.30;;;7.70;99.90;;;;;;5095704;28;20201;-78
2022/11/14 01:42:33;;;;;;;11.50;9.10;;;7.70;99.90;;;;;;5083915;28;20237;-78
2022/11/14 01:45:53;;;;;;;11.07;8.97;;;7.70;99.90;;;;;;5096353;28;20204;-77
2022/11/14 01:48:42;;;;;;;10.27;9.03;;;7.60;99.90;;;;;;5097345;28;20198;-78
2022/11/14 01:51:32;;;;;;;9.53;8.63;;;7.70;99.90;;;;;;5095261;28;20185;-78
2022/11/14 01:54:22;;;;;;;10.30;9.17;;;7.70;99.90;;;;;;5095253;28;20205;-77
2022/11/14 01:57:09;;;;;;;11.33;9.97;;;7.60;99.90;;;;;;5092599;28;20194;-78
2022/11/14 01:59:58;;;;;;;10.50;8.90;;;7.70;99.90;;;;;;5094516;28;20667;-78
2022/11/14 02:02:46;;;;;;;9.87;8.87;;;7.60;99.90;;;;;;5090080;28;20740;-78
2022/11/14 02:05:33;;;;;;;10.30;9.23;;;7.60;99.90;;;;;;5094544;28;20181;-78
2022/11/14 02:08:20;;;;;;;10.37;9.27;;;7.60;99.90;;;;;;5093289;28;20193;-77
2022/11/14 02:11:06;;;;;;;12.27;9.60;;;7.60;99.90;;;;;;5094273;28;20203;-78
2022/11/14 02:13:59;;;;;;;11.63;9.53;;;7.60;99.90;;;;;;5076260;28;20217;-78
2022/11/14 02:16:45;;;;;;;11.07;9.20;;;7.50;99.90;;;;;;5095779;28;20189;-78
2022/11/14 02:19:43;;;;;;;10.13;9.00;;;7.50;99.90;;;;;;5098673;28;20191;-78
2022/11/14 02:22:30;;;;;;;11.73;9.60;;;7.50;99.90;;;;;;5091238;28;20225;-78
2022/11/14 02:25:18;;;;;;;11.23;9.87;;;7.60;99.90;;;;;;5095446;28;20574;-78
2022/11/14 02:28:07;;;;;;;10.73;9.00;;;7.60;99.90;;;;;;5091733;28;20204;-78
2022/11/14 02:30:53;;;;;;;10.70;9.53;;;7.50;99.90;;;;;;5094424;28;20677;-78
2022/11/14 02:33:39;;;;;;;11.57;10.07;;;7.40;99.90;;;;;;5086059;28;20220;-78
2022/11/14 02:36:25;;;;;;;12.33;10.00;;;7.40;99.90;;;;;;5093254;28;20195;-78
2022/11/14 02:39:12;;;;;;;10.67;9.57;;;7.40;99.90;;;;;;5092232;28;20209;-78
2022/11/14 02:41:58;;;;;;;10.37;8.80;;;7.40;99.90;;;;;;5090527;28;20969;-78
2022/11/14 02:44:44;;;;;;;12.23;10.07;;;7.50;99.90;;;;;;5094296;28;20673;-77
2022/11/14 02:47:30;;;;;;;12.50;9.90;;;7.50;99.90;;;;;;5095814;28;20192;-78
2022/11/14 02:50:17;;;;;;;10.93;9.83;;;7.50;99.90;;;;;;5092176;28;20525;-78
2022/11/14 02:53:02;;;;;;;13.60;10.23;;;7.50;99.90;;;;;;5084845;28;20218;-78
2022/11/14 02:55:50;;;;;;;11.97;10.77;;;7.60;99.90;;;;;;5096463;28;20200;-78
2022/11/14 02:58:36;;;;;;;12.17;10.93;;;7.60;99.90;;;;;;5093288;28;20193;-78
2022/11/14 03:01:22;;;;;;;12.07;9.33;;;7.60;99.90;;;;;;5092461;28;20188;-78
2022/11/14 03:04:08;;;;;;;11.70;10.50;;;7.90;99.90;;;;;;5091781;28;20189;-78
2022/11/14 03:06:57;;;;;;;11.60;10.40;;;7.80;99.90;;;;;;5090326;28;20204;-77
2022/11/14 03:09:43;;;;;;;12.27;10.57;;;7.50;99.90;;;;;;5095123;28;20188;-78
2022/11/14 03:12:30;;;;;;;11.00;9.73;;;7.30;99.90;;;;;;5087655;28;20220;-78
2022/11/14 03:15:16;;;;;;;13.47;10.77;;;7.30;99.90;;;;;;5095993;28;20196;-78
2022/11/14 03:18:02;;;;;;;12.60;10.10;;;7.60;99.90;;;;;;5093703;28;20224;-78
2022/11/14 03:20:48;;;;;;;12.20;10.70;;;7.60;99.90;;;;;;5090345;28;20584;-78
2022/11/14 03:23:37;;;;;;;12.23;11.00;;;7.40;99.90;;;;;;5084889;28;20217;-78
2022/11/14 03:26:23;;;;;;;11.93;10.53;;;7.30;99.90;;;;;;5086525;28;20201;-78
2022/11/14 03:29:10;;;;;;;12.90;10.90;;;7.10;99.90;;;;;;5096258;28;20321;-77
2022/11/14 03:31:56;;;;;;;13.77;11.20;;;7.10;99.90;;;;;;5088432;28;20208;-78
2022/11/14 03:34:43;;;;;;;13.40;10.63;;;7.00;99.90;;;;;;5090593;28;20212;-78
2022/11/14 03:37:29;;;;;;;13.67;10.90;;;6.90;99.90;;;;;;5096942;28;20191;-77
2022/11/14 03:40:16;;;;;;;12.93;11.13;;;6.70;99.90;;;;;;5090407;28;20192;-78
2022/11/14 03:43:02;;;;;;;13.37;10.97;;;6.70;99.90;;;;;;5091471;28;20217;-77
2022/11/14 03:45:49;;;;;;;13.03;10.63;;;6.80;99.90;;;;;;5085321;28;20684;-78
2022/11/14 03:48:36;;;;;;;12.20;10.37;;;7.00;99.90;;;;;;5093623;28;20196;-78
2022/11/14 03:51:22;;;;;;;12.83;11.00;;;7.20;99.90;;;;;;5094405;28;20192;-78
2022/11/14 03:54:08;;;;;;;12.60;10.60;;;7.30;99.90;;;;;;5093121;28;20197;-77
2022/11/14 03:56:54;;;;;;;12.17;10.70;;;7.20;99.90;;;;;;5095895;28;20203;-78
2022/11/14 03:59:40;;;;;;;13.33;10.43;;;6.90;99.90;;;;;;5093342;28;20200;-78
2022/11/14 04:02:27;;;;;;;13.00;10.73;;;6.90;99.90;;;;;;5093173;28;20223;-78
2022/11/14 04:05:13;;;;;;;13.40;11.83;;;6.80;99.90;;;;;;5092193;28;20204;-78
2022/11/14 04:07:59;;;;;;;13.70;11.60;;;6.70;99.90;;;;;;5094985;28;20208;-78
2022/11/14 04:10:47;;;;;;;13.13;11.10;;;6.40;99.90;;;;;;5098448;28;20195;-77
2022/11/14 04:13:33;;;;;;;12.20;10.67;;;6.40;99.90;;;;;;5091520;28;20220;-76
2022/11/14 04:16:19;;;;;;;13.87;11.57;;;6.40;99.90;;;;;;5096318;28;20200;-76
2022/11/14 04:19:06;;;;;;;12.90;11.17;;;6.40;99.90;;;;;;5091644;28;20189;-76
2022/11/14 04:21:52;;;;;;;15.17;11.43;;;6.50;99.90;;;;;;5093137;28;20203;-77
2022/11/14 04:24:38;;;;;;;12.30;11.00;;;6.70;99.90;;;;;;5090272;28;20196;-77
2022/11/14 04:27:24;;;;;;;14.13;12.00;;;6.60;99.90;;;;;;5099167;28;20597;-76
2022/11/14 04:30:11;;;;;;;12.27;10.63;;;6.60;99.90;;;;;;5095806;28;20192;-77
2022/11/14 04:32:57;;;;;;;15.23;12.67;;;6.60;99.90;;;;;;5087833;28;20232;-77
2022/11/14 04:35:44;;;;;;;14.87;11.93;;;6.70;99.90;;;;;;5083283;28;20224;-76
2022/11/14 04:38:30;;;;;;;15.27;12.47;;;6.60;99.90;;;;;;5093254;28;20199;-77
2022/11/14 04:41:16;;;;;;;14.30;11.73;;;6.50;99.90;;;;;;5098510;28;20200;-77
2022/11/14 04:44:03;;;;;;;14.20;12.10;;;6.30;99.90;;;;;;5084511;28;20998;-77
2022/11/14 04:46:48;;;;;;;13.00;11.57;;;6.40;99.90;;;;;;5095214;28;20196;-77
2022/11/14 04:49:35;;;;;;;14.50;12.43;;;6.50;99.90;;;;;;5090207;28;20200;-77
2022/11/14 04:52:23;;;;;;;14.80;10.87;;;6.50;99.90;;;;;;5097796;28;20581;-77
2022/11/14 04:55:12;;;;;;;15.83;12.63;;;6.70;99.90;;;;;;5094710;28;20200;-77
2022/11/14 04:57:58;;;;;;;14.50;11.70;;;6.60;99.90;;;;;;5095950;28;20200;-77
2022/11/14 05:00:44;;;;;;;15.90;11.97;;;6.40;99.90;;;;;;5093776;28;20196;-77
2022/11/14 05:03:30;;;;;;;16.03;11.93;;;6.50;99.90;;;;;;5091033;28;20216;-77
2022/11/14 05:06:16;;;;;;;14.90;11.40;;;6.50;99.90;;;;;;5096895;28;20188;-77
2022/11/14 05:09:03;;;;;;;14.20;11.83;;;6.70;99.90;;;;;;5089557;28;20212;-77
2022/11/14 05:11:52;;;;;;;15.90;12.47;;;6.70;99.90;;;;;;5090205;28;20665;-77
2022/11/14 05:14:38;;;;;;;15.37;12.70;;;6.90;99.90;;;;;;5097299;28;20180;-77
2022/11/14 05:17:24;;;;;;;14.50;12.60;;;6.50;99.90;;;;;;5100659;28;20192;-77
2022/11/14 05:20:11;;;;;;;13.80;12.33;;;6.20;99.90;;;;;;5098841;28;20200;-77
2022/11/14 05:22:57;;;;;;;13.97;11.37;;;6.10;99.90;;;;;;5084818;28;20704;-77
2022/11/14 05:25:44;;;;;;;15.90;11.90;;;6.20;99.90;;;;;;5088989;28;20188;-77
2022/11/14 05:29:17;;;;;;;14.63;12.97;;;6.20;99.90;;;;;;5093584;28;20203;-77
2022/11/14 05:32:04;;;;;;;14.37;11.93;;;6.10;99.90;;;;;;5087608;28;20732;-77
2022/11/14 05:34:49;;;;;;;16.23;12.80;;;6.10;99.90;;;;;;5091091;28;20211;-77
2022/11/14 05:37:38;;;;;;;13.33;11.47;;;6.10;99.90;;;;;;5094128;28;20563;-77
2022/11/14 05:40:24;;;;;;;15.70;12.23;;;6.20;99.90;;;;;;5094683;28;20608;-77
2022/11/14 05:43:34;;;;;;;14.63;12.73;;;6.00;99.90;;;;;;5088469;28;20232;-77
2022/11/14 05:46:20;;;;;;;14.33;12.03;;;6.00;99.90;;;;;;5100369;28;20216;-77
2022/11/14 05:49:06;;;;;;;14.47;11.90;;;6.10;99.90;;;;;;5099115;28;20203;-77
2022/11/14 05:51:56;;;;;;;14.20;11.70;;;6.50;99.90;;;;;;5092700;28;20545;-77
2022/11/14 05:54:42;;;;;;;16.77;13.90;;;6.70;99.90;;;;;;5090800;28;20196;-77
2022/11/14 05:57:28;;;;;;;14.33;12.40;;;6.60;99.90;;;;;;5087941;28;20201;-77
2022/11/14 06:00:16;;;;;;;14.73;12.37;;;6.60;99.90;;;;;;5091634;28;20196;-77
2022/11/14 06:03:02;;;;;;;15.77;12.90;;;6.40;99.90;;;;;;5088976;28;20237;-77
2022/11/14 06:05:48;;;;;;;14.97;11.77;;;6.50;99.90;;;;;;5095712;28;20208;-77
2022/11/14 06:08:35;;;;;;;14.47;12.10;;;6.70;99.90;;;;;;5085334;28;20200;-77
2022/11/14 06:11:21;;;;;;;16.90;13.43;;;6.60;99.90;;;;;;5086744;28;20538;-77
2022/11/14 06:14:07;;;;;;;13.77;12.27;;;6.30;99.90;;;;;;5090808;28;20216;-77
2022/11/14 06:16:55;;;;;;;16.43;13.17;;;6.00;99.90;;;;;;5094932;28;20199;-77
2022/11/14 06:19:44;;;;;;;14.57;12.20;;;5.90;99.90;;;;;;5095989;28;20219;-77
2022/11/14 06:22:30;;;;;;;14.63;12.07;;;5.90;99.90;;;;;;5090088;28;20748;-77
2022/11/14 06:25:16;;;;;;;15.47;12.27;;;5.80;99.90;;;;;;5090493;28;20562;-78
2022/11/14 06:28:02;;;;;;;17.10;13.37;;;6.00;99.90;;;;;;5091814;28;20561;-77
2022/11/14 06:30:51;;;;;;;16.40;13.03;;;6.20;99.90;;;;;;5091303;28;20214;-77
2022/11/14 06:33:38;;;;;;;16.17;12.80;;;6.50;99.90;;;;;;5083197;28;20231;-82
2022/11/14 06:36:24;;;;;;;16.90;12.53;;;6.40;99.90;;;;;;5096343;28;20192;-82
2022/11/14 06:39:10;;;;;;;16.67;13.73;;;6.40;99.90;;;;;;5092301;28;20216;-82
2022/11/14 06:41:56;;;;;;;16.53;13.50;;;6.50;99.90;;;;;;5085779;28;20192;-81
2022/11/14 06:45:11;;;;;;;15.70;12.70;;;6.00;99.90;;;;;;5093637;28;20216;-82
2022/11/14 06:47:59;;;;;;;17.77;13.23;;;5.70;99.90;;;;;;5087320;28;20195;-82
2022/11/14 06:50:51;;;;;;;13.90;12.33;;;5.60;99.90;;;;;;5097248;28;20223;-82
2022/11/14 06:53:49;;;;;;;16.57;13.13;;;5.60;99.90;;;;;;5088606;28;20219;-82
2022/11/14 06:56:35;;;;;;;17.50;13.53;;;5.70;99.90;;;;;;5093644;28;20208;-82
2022/11/14 06:59:21;;;;;;;15.90;12.57;;;5.80;99.90;;;;;;5083133;28;20211;-82
2022/11/14 07:02:10;;;;;;;15.80;12.87;;;5.60;99.90;;;;;;5096178;28;20235;-82
2022/11/14 07:04:56;;;;;;;17.23;14.00;;;5.40;99.90;;;;;;5096475;28;20211;-82
2022/11/14 07:07:44;;;;;;;16.07;13.27;;;5.50;99.90;;;;;;5096142;28;20199;-82
2022/11/14 07:10:30;;;;;;;15.77;13.40;;;5.40;99.90;;;;;;5096458;28;20211;-82
2022/11/14 07:13:16;;;;;;;16.50;13.03;;;5.50;99.90;;;;;;5092458;28;20234;-83
2022/11/14 07:16:03;;;;;;;13.87;12.10;;;5.30;99.90;;;;;;5089146;28;20670;-82
2022/11/14 07:18:49;;;;;;;17.23;12.50;;;5.30;99.90;;;;;;5094472;28;20221;-83
2022/11/14 07:21:36;;;;;;;16.03;13.33;;;5.50;99.90;;;;;;5088862;28;20195;-83
2022/11/14 07:24:23;;;;;;;14.27;11.67;;;5.50;99.90;;;;;;5075893;28;20212;-82
2022/11/14 07:27:10;;;;;;;15.73;11.83;;;5.50;99.90;;;;;;5081244;28;20200;-81
2022/11/14 07:29:56;;;;;;;19.33;12.67;;;5.60;99.90;;;;;;5094501;28;20215;-82
2022/11/14 07:32:42;;;;;;;16.23;11.27;;;5.80;99.90;;;;;;5084545;22;20224;-79
2022/11/14 07:35:29;;;;;;;14.27;11.77;;;5.80;99.90;;;;;;5055297;28;20296;-80
2022/11/14 07:38:15;;;;;;;13.30;10.43;;;6.10;99.90;;;;;;5052387;28;20192;-81
2022/11/14 07:41:05;;;;;;;16.77;12.80;;;6.10;99.90;;;;;;5052817;28;20208;-80
2022/11/14 07:43:50;;;;;;;13.43;11.40;;;6.20;99.90;;;;;;5034381;28;20199;-79
2022/11/14 07:46:36;;;;;;;16.93;12.60;;;6.20;99.90;;;;;;5031952;28;20686;-82
2022/11/14 07:49:22;;;;;;;16.00;12.57;;;6.30;99.90;;;;;;5035256;28;20218;-81
2022/11/14 07:52:09;;;;;;;15.23;12.97;;;6.40;99.90;;;;;;5036981;28;20230;-79
2022/11/14 07:55:05;;;;;;;16.80;12.73;;;6.40;99.90;;;;;;5030327;28;20883;-79
2022/11/14 07:58:01;;;;;;;17.40;13.07;;;6.50;99.90;;;;;;5028146;28;20226;-79
2022/11/14 08:00:47;;;;;;;16.97;13.53;;;6.70;99.90;;;;;;5038126;28;20201;-79
2022/11/14 08:03:34;;;;;;;17.93;12.63;;;6.70;99.90;;;;;;5032304;28;20229;-81
2022/11/14 08:06:20;;;;;;;21.40;14.67;;;6.90;99.90;;;;;;5039722;28;20206;-79
2022/11/14 08:09:06;;;;;;;19.37;13.73;;;6.90;99.90;;;;;;5036415;28;20210;-80
2022/11/14 08:11:52;;;;;;;18.27;14.17;;;6.90;99.90;;;;;;5036867;28;20233;-81
2022/11/14 08:14:40;;;;;;;16.47;13.77;;;6.90;99.90;;;;;;5043885;28;20675;-81
2022/11/14 08:17:26;;;;;;;19.17;13.70;;;6.60;99.90;;;;;;5045964;28;20269;-81
2022/11/14 08:20:12;;;;;;;15.27;11.80;;;6.60;99.90;;;;;;5037771;28;20202;-80
2022/11/14 08:23:02;;;;;;;17.80;13.43;;;6.80;99.90;;;;;;5042104;28;20222;-83
2022/11/14 08:25:48;;;;;;;25.03;16.37;;;7.10;99.90;;;;;;5042831;28;20226;-83
2022/11/14 08:28:39;;;;;;;24.23;15.07;;;7.30;99.90;;;;;;5045259;28;20198;-80
2022/11/14 08:31:27;;;;;;;17.00;13.77;;;7.40;99.90;;;;;;5045228;28;20190;-80
2022/11/14 08:34:13;;;;;;;19.53;14.03;;;7.60;99.90;;;;;;5031877;28;20187;-80
2022/11/14 08:37:01;;;;;;;15.53;13.23;;;7.70;99.90;;;;;;5039707;28;20198;-80
2022/11/14 08:39:48;;;;;;;17.20;13.73;;;7.80;99.90;;;;;;5036419;28;20207;-80
2022/11/14 08:42:34;;;;;;;14.30;12.20;;;7.80;99.90;;;;;;5040854;28;20233;-80
2022/11/14 08:45:20;;;;;;;16.17;13.17;;;8.00;99.90;;;;;;5037302;28;20214;-80
2022/11/14 08:48:10;;;;;;;14.77;12.87;;;8.20;99.90;;;;;;5047197;28;20217;-82
2022/11/14 08:50:56;;;;;;;16.60;13.67;;;8.20;99.90;;;;;;5037793;28;20218;-81
2022/11/14 08:53:42;;;;;;;16.97;13.73;;;8.10;99.90;;;;;;5037587;28;20222;-83
2022/11/14 08:56:28;;;;;;;16.33;12.67;;;8.30;99.90;;;;;;5047557;28;20198;-81
2022/11/14 08:59:14;;;;;;;17.77;12.37;;;8.60;99.90;;;;;;5050369;28;20202;-81
2022/11/14 09:02:00;;;;;;;14.00;11.53;;;8.80;99.90;;;;;;5049582;28;20229;-81
2022/11/14 09:04:48;;;;;;;18.80;12.63;;;9.10;99.90;;;;;;5052690;28;20224;-81
2022/11/14 09:07:34;;;;;;;14.07;10.47;;;9.00;99.90;;;;;;5050625;28;20225;-84
2022/11/14 09:10:20;;;;;;;13.10;10.60;;;9.20;99.90;;;;;;5041741;28;20218;-80
2022/11/14 09:13:06;;;;;;;14.30;11.13;;;9.30;99.90;;;;;;5048069;28;20650;-83
2022/11/14 09:15:52;;;;;;;15.70;11.63;;;9.20;99.90;;;;;;5052002;28;20190;-84
2022/11/14 09:18:39;;;;;;;13.07;10.53;;;9.30;99.90;;;;;;5038776;28;20209;-81
2022/11/14 09:21:27;;;;;;;16.10;11.70;;;9.30;99.90;;;;;;5042644;28;20202;-81
2022/11/14 09:24:13;;;;;;;13.00;10.63;;;9.40;99.90;;;;;;5043286;28;20210;-80
2022/11/14 09:26:59;;;;;;;14.73;11.53;;;9.40;99.90;;;;;;5048033;28;20202;-85
2022/11/14 09:29:46;;;;;;;15.80;12.07;;;9.30;99.90;;;;;;5043432;28;20206;-82
2022/11/14 09:32:34;;;;;;;16.93;11.60;;;9.30;99.90;;;;;;5042868;28;20229;-82
2022/11/14 09:35:20;;;;;;;15.77;12.53;;;9.30;99.90;;;;;;5041684;28;20206;-82
2022/11/14 09:38:09;;;;;;;15.73;12.07;;;9.20;99.90;;;;;;5047240;28;20202;-81
2022/11/14 09:41:08;;;;;;;15.97;11.73;;;9.20;99.90;;;;;;5047457;28;20198;-84
2022/11/14 09:44:28;;;;;;;16.70;12.27;;;9.10;99.90;;;;;;5046251;28;21493;-82
2022/11/14 09:47:20;;;;;;;16.77;12.73;;;9.00;99.90;;;;;;5048308;28;20210;-82
2022/11/14 09:50:11;;;;;;;16.83;12.43;;;9.10;99.90;;;;;;5037329;28;20206;-82
2022/11/14 09:52:58;;;;;;;16.33;12.73;;;9.00;99.90;;;;;;5041770;28;20229;-85
2022/11/14 09:55:46;;;;;;;15.97;12.67;;;8.90;99.90;;;;;;5043744;28;20190;-83
2022/11/14 09:58:32;;;;;;;19.00;12.97;;;9.00;99.90;;;;;;5046895;28;20202;-82
2022/11/14 10:01:36;;;;;;;19.47;13.90;;;9.00;99.90;;;;;;5046961;28;20765;-83
2022/11/14 10:04:31;;;;;;;18.70;13.97;;;9.00;99.90;;;;;;5038817;28;20213;-82
2022/11/14 10:07:30;;;;;;;20.93;14.77;;;8.90;99.90;;;;;;5044621;28;20197;-83
2022/11/14 10:10:35;;;;;;;19.80;14.37;;;8.90;99.90;;;;;;5040681;28;20218;-84
2022/11/14 10:13:55;;;;;;;22.03;14.50;;;8.80;99.90;;;;;;5041870;28;20269;-83
2022/11/14 10:16:51;;;;;;;21.03;14.87;;;8.80;99.90;;;;;;5044700;28;20202;-83
2022/11/14 10:19:47;;;;;;;20.03;14.10;;;8.70;99.90;;;;;;5050750;28;20213;-83
2022/11/14 10:22:52;;;;;;;22.77;14.40;;;8.70;99.90;;;;;;5040619;28;20234;-84
2022/11/14 10:25:52;;;;;;;18.57;13.77;;;8.60;99.90;;;;;;5036774;28;20214;-84
2022/11/14 10:29:04;;;;;;;20.07;14.33;;;8.70;99.90;;;;;;5038903;28;20202;-84
2022/11/14 10:32:00;;;;;;;18.87;14.00;;;8.70;99.90;;;;;;5040052;28;20620;-81
2022/11/14 10:34:51;;;;;;;18.97;13.43;;;8.70;99.90;;;;;;5046855;28;20202;-82
2022/11/14 10:37:41;;;;;;;18.93;13.40;;;8.80;99.90;;;;;;5048851;28;20194;-81
2022/11/14 10:40:34;;;;;;;18.63;13.00;;;8.90;99.90;;;;;;5045181;28;20210;-81
2022/11/14 10:43:25;;;;;;;20.13;13.33;;;9.00;99.90;;;;;;5036100;28;20234;-81
2022/11/14 10:46:17;;;;;;;16.77;12.33;;;8.90;99.90;;;;;;5045094;28;20222;-81
2022/11/14 10:49:14;;;;;;;15.97;12.33;;;8.90;99.90;;;;;;5043139;28;20201;-81
2022/11/14 10:52:04;;;;;;;16.73;12.00;;;8.90;99.90;;;;;;5044907;28;20226;-81
2022/11/14 10:54:56;;;;;;;17.33;13.00;;;8.90;99.90;;;;;;5045948;28;20206;-81
2022/11/14 10:57:44;;;;;;;17.60;12.27;;;8.90;99.90;;;;;;5046222;28;20206;-81
2022/11/14 11:00:31;;;;;;;19.03;13.00;;;8.90;99.90;;;;;;5037391;28;20205;-81
2022/11/14 11:03:18;;;;;;;15.00;11.63;;;8.90;99.90;;;;;;5036702;28;20230;-79
2022/11/14 11:06:04;;;;;;;16.90;11.70;;;9.10;99.90;;;;;;5042123;28;20210;-78
2022/11/14 11:11:57;;;;;;;19.10;13.83;;;9.30;99.90;;;;;;5037225;28;20214;-79
2022/11/14 11:14:44;;;;;;;15.83;11.13;;;9.40;99.90;;;;;;5044801;28;20194;-79
2022/11/14 11:17:30;;;;;;;16.53;12.83;;;9.50;99.90;;;;;;5038090;28;20194;-79
2022/11/14 11:20:27;;;;;;;17.77;12.87;;;9.60;99.90;;;;;;5036265;28;20194;-79
2022/11/14 11:23:19;;;;;;;16.97;12.43;;;9.70;99.90;;;;;;5029039;28;20234;-80
2022/11/14 11:26:10;;;;;;;15.53;12.97;;;9.80;99.90;;;;;;5027791;28;20222;-79
2022/11/14 11:29:16;;;;;;;16.07;12.40;;;10.00;99.90;;;;;;5030999;28;20206;-80
2022/11/14 11:32:03;;;;;;;18.23;12.70;;;10.30;99.90;;;;;;5032992;28;20249;-79
2022/11/14 11:34:51;;;;;;;15.17;11.60;;;10.60;99.90;;;;;;5035235;28;20209;-78
2022/11/14 11:37:43;;;;;;;15.27;11.87;;;10.60;99.90;;;;;;5033729;28;20190;-82
2022/11/14 11:40:30;;;;;;;16.93;12.63;;;10.70;99.90;;;;;;5044684;28;20206;-80
2022/11/14 11:43:25;;;;;;;15.20;12.33;;;10.80;99.90;;;;;;5033447;28;20234;-80
2022/11/14 11:46:19;;;;;;;15.63;12.37;;;10.70;99.90;;;;;;5037160;28;20222;-80
2022/11/14 11:49:15;;;;;;;13.60;11.03;;;11.30;99.90;;;;;;5038802;28;20717;-81
2022/11/14 11:52:10;;;;;;;15.63;11.77;;;11.70;99.90;;;;;;5033008;28;20237;-79
2022/11/14 11:55:05;;;;;;;15.17;12.43;;;11.70;99.90;;;;;;5034444;28;20212;-80
2022/11/14 11:57:59;;;;;;;16.07;11.10;;;12.30;99.90;;;;;;5038388;28;20199;-80
2022/11/14 12:00:45;;;;;;;14.37;10.60;;;11.60;99.90;;;;;;5031924;28;20571;-81
2022/11/14 12:03:31;;;;;;;14.77;11.13;;;11.60;99.90;;;;;;5034182;28;20234;-81
2022/11/14 12:06:23;;;;;;;13.50;10.60;;;11.90;99.90;;;;;;5038915;28;20218;-81
2022/11/14 12:09:18;;;;;;;15.70;10.90;;;11.70;99.90;;;;;;5038752;28;20232;-82
2022/11/14 12:12:13;;;;;;;13.10;10.53;;;12.20;99.90;;;;;;5036378;28;20230;-80
2022/11/14 12:15:18;;;;;;;11.63;10.17;;;13.10;99.90;;;;;;5040113;28;20202;-80
2022/11/14 12:18:26;;;;;;;14.17;10.53;;;12.90;99.90;;;;;;5037788;28;20198;-82
2022/11/14 12:21:18;;;;;;;13.83;10.40;;;12.00;99.90;;;;;;5032967;28;20227;-81
2022/11/14 12:24:44;;;;;;;12.63;10.20;;;11.80;99.90;;;;;;5042548;28;20202;-81
2022/11/14 12:27:44;;;;;;;11.43;8.40;;;11.70;99.90;;;;;;5037953;28;20229;-81
2022/11/14 12:30:32;;;;;;;12.40;9.63;;;12.00;99.90;;;;;;5041740;28;20214;-82
2022/11/14 12:33:24;;;;;;;11.80;9.17;;;12.20;99.90;;;;;;5032625;28;20238;-82
2022/11/14 12:36:12;;;;;;;11.87;9.80;;;12.00;99.90;;;;;;5039592;28;20194;-83
2022/11/14 12:39:00;;;;;;;12.93;9.73;;;12.00;99.90;;;;;;5046189;28;20213;-83
2022/11/14 12:41:46;;;;;;;11.53;9.20;;;12.20;99.90;;;;;;5045195;28;20245;-83
2022/11/14 12:44:36;;;;;;;11.10;8.77;;;11.90;99.90;;;;;;5051496;28;20194;-83
2022/11/14 12:47:24;;;;;;;10.37;8.63;;;11.50;99.90;;;;;;5032293;28;20202;-82
2022/11/14 12:50:41;;;;;;;10.63;8.60;;;11.40;99.90;;;;;;5037171;28;20202;-83
2022/11/14 12:53:43;;;;;;;10.70;8.73;;;11.40;99.90;;;;;;5035170;28;20230;-81
2022/11/14 12:57:02;;;;;;;9.57;7.77;;;11.90;99.90;;;;;;5042111;28;20198;-81
2022/11/14 13:00:01;;;;;;;10.43;7.87;;;11.60;99.90;;;;;;5039119;28;20206;-86
2022/11/14 13:03:21;;;;;;;10.60;8.80;;;11.10;99.90;;;;;;5034871;28;20229;-81
2022/11/14 13:06:10;;;;;;;9.93;7.80;;;11.00;99.90;;;;;;5040709;28;20206;-81
2022/11/14 13:09:28;;;;;;;10.77;7.90;;;10.90;99.90;;;;;;5041801;28;20198;-81
2022/11/14 13:22:37;;;;;;;10.20;7.33;;;10.70;99.90;;;;;;5033486;28;20233;-80
2022/11/14 13:25:26;;;;;;;10.37;8.00;;;10.80;99.90;;;;;;5036951;28;20763;-80
2022/11/14 13:28:44;;;;;;;10.33;7.87;;;10.70;99.90;;;;;;5038623;28;20286;-80
2022/11/14 13:31:49;;;;;;;11.33;7.70;;;10.70;99.90;;;;;;5034599;28;20206;-81
2022/11/14 13:34:49;;;;;;;9.97;6.83;;;10.70;99.90;;;;;;5036791;28;20202;-81
2022/11/14 13:37:53;;;;;;;11.47;8.57;;;10.70;99.90;;;;;;5033581;28;20190;-80
2022/11/14 13:40:46;;;;;;;10.87;8.30;;;10.80;99.90;;;;;;5040221;28;20194;-81
2022/11/14 13:43:58;;;;;;;13.70;8.47;;;10.80;99.90;;;;;;5036645;28;20230;-80
2022/11/14 13:47:04;;;;;;;12.03;8.30;;;10.70;99.90;;;;;;5040673;28;20210;-80
2022/11/14 13:50:00;;;;;;;11.73;8.87;;;10.70;99.90;;;;;;5037500;28;20206;-80
2022/11/14 13:52:47;;;;;;;11.17;8.37;;;10.70;99.90;;;;;;5037887;28;20237;-81
2022/11/14 13:55:46;;;;;;;10.63;8.90;;;10.80;99.90;;;;;;5038754;28;20210;-80
2022/11/14 13:58:49;;;;;;;13.07;9.40;;;10.80;99.90;;;;;;5039419;28;20206;-81
2022/11/14 14:01:48;;;;;;;13.20;9.47;;;10.70;99.90;;;;;;5041917;28;20201;-80
2022/11/14 14:04:49;;;;;;;12.07;9.87;;;10.80;99.90;;;;;;5039611;28;20286;-81
2022/11/14 14:07:49;;;;;;;12.93;9.70;;;10.80;99.90;;;;;;5035896;28;20234;-83
2022/11/14 14:10:41;;;;;;;11.97;9.43;;;10.80;99.90;;;;;;5046179;28;20259;-80
2022/11/14 14:13:47;;;;;;;11.63;8.93;;;11.00;99.90;;;;;;5043488;22;20294;-79
2022/11/14 14:16:44;;;;;;;15.07;10.00;;;11.20;99.90;;;;;;4985742;28;20220;-79
2022/11/14 14:20:04;;;;;;;13.10;9.93;;;11.30;99.90;;;;;;4981098;28;20203;-79
2022/11/14 14:23:04;;;;;;;11.20;8.43;;;11.30;99.90;;;;;;4992822;28;20233;-78
2022/11/14 14:25:59;;;;;;;12.13;8.93;;;11.40;99.90;;;;;;4994516;28;20192;-79
2022/11/14 14:28:52;;;;;;;11.73;9.20;;;11.30;99.90;;;;;;5009719;28;20232;-79
2022/11/14 14:31:41;;;;;;;16.40;10.07;;;11.30;99.90;;;;;;4986957;28;20228;-79
2022/11/14 14:34:33;;;;;;;11.90;9.20;;;11.00;99.90;;;;;;4985155;28;20677;-78
2022/11/14 14:37:32;;;;;;;12.23;9.57;;;10.90;99.90;;;;;;4977838;28;20204;-78
2022/11/14 14:40:26;;;;;;;12.73;9.27;;;10.80;99.90;;;;;;4989399;28;20220;-78
2022/11/14 14:43:25;;;;;;;12.83;9.60;;;10.90;99.90;;;;;;5014110;28;20228;-78
2022/11/14 14:46:26;;;;;;;12.47;10.37;;;10.90;99.90;;;;;;4991871;28;20212;-77
2022/11/14 14:49:21;;;;;;;13.93;10.10;;;10.90;99.90;;;;;;4983699;28;20200;-81
2022/11/14 14:52:21;;;;;;;13.07;10.03;;;10.80;99.90;;;;;;4979351;28;20236;-77